KSYI/SYI METAR and TAF weather

Enter ICAO airport designator
Station Type Date Time Source
KSYI METAR 2021/07/28 18:55 UTC NOAA

KSYI 281855Z AUTO VRB05KT 10SM CLR 33/21 A3006 RMK A01


Station Type Date Time Source
KSYI Decoded METAR 2021/07/28 18:55 UTC NOAA

Station name not available
Jul 28, 2021 - 02:55 PM EDT / 2021.07.28 1855 UTC
Wind: Variable at 6 MPH (5 KT):0
Visibility: 10 mile(s):0
Sky conditions: clear
Temperature: 91 F (33 C)
Heat index: 96.1 F (35.6 C):1
Dew Point: 69 F (21 C)
Relative Humidity: 49%
Pressure (altimeter): 30.06 in. Hg (1017 hPa)
ob: KSYI 281855Z AUTO VRB05KT 10SM CLR 33/21 A3006 RMK A01
cycle: 19

Station Type Date Time Source
KSYI TAF UTC NOAA

Error!

Example: see airport list